sensor_id;sensor_type;location;lat;lon;timestamp;pressure;altitude;pressure_sealevel;temperature;humidity
58919;BME280;44704;50.122;19.932;2022-09-24T00:01:36;98545.08;;;5.19;85.81
58919;BME280;44704;50.122;19.932;2022-09-24T00:04:09;98538.85;;;5.14;85.61
58919;BME280;44704;50.122;19.932;2022-09-24T00:06:45;98541.25;;;5.12;85.75
58919;BME280;44704;50.122;19.932;2022-09-24T00:09:17;98544.27;;;5.12;86.10
58919;BME280;44704;50.122;19.932;2022-09-24T00:11:49;98539.70;;;5.11;86.05
58919;BME280;44704;50.122;19.932;2022-09-24T00:14:21;98539.63;;;5.11;86.05
58919;BME280;44704;50.122;19.932;2022-09-24T00:16:47;98538.17;;;5.09;85.90
58919;BME280;44704;50.122;19.932;2022-09-24T00:19:17;98533.36;;;5.05;85.64
58919;BME280;44704;50.122;19.932;2022-09-24T00:21:44;98533.52;;;5.00;85.79
58919;BME280;44704;50.122;19.932;2022-09-24T00:24:13;98530.36;;;4.95;85.84
58919;BME280;44704;50.122;19.932;2022-09-24T00:27:00;98531.90;;;4.92;86.22
58919;BME280;44704;50.122;19.932;2022-09-24T00:29:28;98526.88;;;4.90;86.31
58919;BME280;44704;50.122;19.932;2022-09-24T00:31:58;98526.22;;;4.89;86.50
58919;BME280;44704;50.122;19.932;2022-09-24T00:34:24;98528.66;;;4.88;86.69
58919;BME280;44704;50.122;19.932;2022-09-24T00:36:52;98522.22;;;4.88;86.95
58919;BME280;44704;50.122;19.932;2022-09-24T00:39:18;98530.69;;;4.87;87.14
58919;BME280;44704;50.122;19.932;2022-09-24T00:41:44;98530.11;;;4.88;87.36
58919;BME280;44704;50.122;19.932;2022-09-24T00:47:03;98527.33;;;4.90;87.78
58919;BME280;44704;50.122;19.932;2022-09-24T00:49:32;98529.86;;;4.91;87.85
58919;BME280;44704;50.122;19.932;2022-09-24T00:51:58;98530.65;;;4.90;87.60
58919;BME280;44704;50.122;19.932;2022-09-24T00:54:27;98531.61;;;4.90;87.62
58919;BME280;44704;50.122;19.932;2022-09-24T00:56:58;98523.80;;;4.89;87.73
58919;BME280;44704;50.122;19.932;2022-09-24T00:59:26;98519.08;;;4.88;87.49
58919;BME280;44704;50.122;19.932;2022-09-24T01:01:53;98520.52;;;4.87;87.70
58919;BME280;44704;50.122;19.932;2022-09-24T01:04:22;98520.06;;;4.86;87.84
58919;BME280;44704;50.122;19.932;2022-09-24T01:06:50;98512.55;;;4.86;88.07
58919;BME280;44704;50.122;19.932;2022-09-24T01:09:18;98509.77;;;4.88;88.22
58919;BME280;44704;50.122;19.932;2022-09-24T01:12:02;98506.57;;;4.88;88.32
58919;BME280;44704;50.122;19.932;2022-09-24T01:25:00;98498.98;;;4.94;89.14
58919;BME280;44704;50.122;19.932;2022-09-24T01:30:06;98494.34;;;4.94;89.13
58919;BME280;44704;50.122;19.932;2022-09-24T01:32:38;98487.86;;;4.96;89.17
58919;BME280;44704;50.122;19.932;2022-09-24T01:37:54;98485.52;;;4.97;88.96
58919;BME280;44704;50.122;19.932;2022-09-24T01:40:24;98484.40;;;4.96;88.80
58919;BME280;44704;50.122;19.932;2022-09-24T01:42:52;98485.11;;;4.94;88.74
58919;BME280;44704;50.122;19.932;2022-09-24T01:45:20;98484.73;;;4.93;88.54
58919;BME280;44704;50.122;19.932;2022-09-24T01:48:00;98485.39;;;4.92;88.72
58919;BME280;44704;50.122;19.932;2022-09-24T01:50:29;98485.31;;;4.90;88.54
58919;BME280;44704;50.122;19.932;2022-09-24T01:53:11;98486.48;;;4.90;88.75
58919;BME280;44704;50.122;19.932;2022-09-24T01:55:45;98490.63;;;4.88;88.69
58919;BME280;44704;50.122;19.932;2022-09-24T01:58:18;98484.73;;;4.88;88.84
58919;BME280;44704;50.122;19.932;2022-09-24T02:00:50;98481.45;;;4.87;88.79
58919;BME280;44704;50.122;19.932;2022-09-24T02:03:21;98480.95;;;4.87;88.80
58919;BME280;44704;50.122;19.932;2022-09-24T02:06:01;98479.80;;;4.86;89.09
58919;BME280;44704;50.122;19.932;2022-09-24T02:08:37;98481.50;;;4.87;89.35
58919;BME280;44704;50.122;19.932;2022-09-24T02:13:34;98481.20;;;4.89;89.47
58919;BME280;44704;50.122;19.932;2022-09-24T02:16:07;98484.69;;;4.90;89.40
58919;BME280;44704;50.122;19.932;2022-09-24T02:18:39;98484.65;;;4.90;89.30
58919;BME280;44704;50.122;19.932;2022-09-24T02:23:58;98485.28;;;4.85;88.42
58919;BME280;44704;50.122;19.932;2022-09-24T02:26:27;98486.57;;;4.77;88.30
58919;BME280;44704;50.122;19.932;2022-09-24T02:28:57;98486.23;;;4.73;87.99
58919;BME280;44704;50.122;19.932;2022-09-24T02:31:37;98479.70;;;4.68;88.05
58919;BME280;44704;50.122;19.932;2022-09-24T02:34:10;98480.46;;;4.65;88.01
58919;BME280;44704;50.122;19.932;2022-09-24T02:36:56;98478.70;;;4.64;88.01
58919;BME280;44704;50.122;19.932;2022-09-24T02:39:28;98476.09;;;4.60;87.74
58919;BME280;44704;50.122;19.932;2022-09-24T02:41:55;98478.11;;;4.56;87.81
58919;BME280;44704;50.122;19.932;2022-09-24T02:44:23;98476.34;;;4.53;87.96
58919;BME280;44704;50.122;19.932;2022-09-24T02:46:51;98475.79;;;4.52;88.14
58919;BME280;44704;50.122;19.932;2022-09-24T02:49:18;98471.31;;;4.51;88.49
58919;BME280;44704;50.122;19.932;2022-09-24T02:51:47;98470.73;;;4.52;88.39
58919;BME280;44704;50.122;19.932;2022-09-24T02:54:15;98469.32;;;4.52;88.64
58919;BME280;44704;50.122;19.932;2022-09-24T02:56:44;98463.42;;;4.51;88.86
58919;BME280;44704;50.122;19.932;2022-09-24T02:59:18;98459.81;;;4.51;88.85
58919;BME280;44704;50.122;19.932;2022-09-24T03:01:47;98458.02;;;4.51;88.83
58919;BME280;44704;50.122;19.932;2022-09-24T03:04:18;98457.78;;;4.50;89.02
58919;BME280;44704;50.122;19.932;2022-09-24T03:06:45;98462.19;;;4.50;88.88
58919;BME280;44704;50.122;19.932;2022-09-24T03:09:17;98459.81;;;4.49;89.00
58919;BME280;44704;50.122;19.932;2022-09-24T03:11:46;98462.48;;;4.49;89.11
58919;BME280;44704;50.122;19.932;2022-09-24T03:14:12;98461.55;;;4.48;88.93
58919;BME280;44704;50.122;19.932;2022-09-24T03:16:39;98459.11;;;4.47;89.01
58919;BME280;44704;50.122;19.932;2022-09-24T03:19:06;98462.50;;;4.44;88.61
58919;BME280;44704;50.122;19.932;2022-09-24T03:21:34;98457.39;;;4.34;88.27
58919;BME280;44704;50.122;19.932;2022-09-24T03:24:10;98456.67;;;4.29;88.68
58919;BME280;44704;50.122;19.932;2022-09-24T03:26:40;98457.38;;;4.25;88.60
58919;BME280;44704;50.122;19.932;2022-09-24T03:29:08;98455.01;;;4.22;88.73
58919;BME280;44704;50.122;19.932;2022-09-24T03:31:35;98452.88;;;4.19;89.03
58919;BME280;44704;50.122;19.932;2022-09-24T03:34:05;98444.01;;;4.20;89.20
58919;BME280;44704;50.122;19.932;2022-09-24T03:36:32;98443.93;;;4.19;89.51
58919;BME280;44704;50.122;19.932;2022-09-24T03:38:58;98444.54;;;4.19;89.49
58919;BME280;44704;50.122;19.932;2022-09-24T03:41:26;98441.56;;;4.18;89.77
58919;BME280;44704;50.122;19.932;2022-09-24T03:43:54;98441.52;;;4.18;89.89
58919;BME280;44704;50.122;19.932;2022-09-24T03:46:40;98443.55;;;4.20;90.17
58919;BME280;44704;50.122;19.932;2022-09-24T03:49:19;98444.17;;;4.22;90.39
58919;BME280;44704;50.122;19.932;2022-09-24T03:52:03;98446.66;;;4.23;90.60
58919;BME280;44704;50.122;19.932;2022-09-24T03:54:44;98449.98;;;4.25;90.75
58919;BME280;44704;50.122;19.932;2022-09-24T03:57:14;98444.85;;;4.27;90.92
58919;BME280;44704;50.122;19.932;2022-09-24T04:00:04;98446.23;;;4.29;90.94
58919;BME280;44704;50.122;19.932;2022-09-24T04:02:33;98443.29;;;4.31;90.86
58919;BME280;44704;50.122;19.932;2022-09-24T04:05:00;98443.58;;;4.30;90.65
58919;BME280;44704;50.122;19.932;2022-09-24T04:07:29;98445.14;;;4.29;90.58
58919;BME280;44704;50.122;19.932;2022-09-24T04:09:56;98453.48;;;4.29;90.64
58919;BME280;44704;50.122;19.932;2022-09-24T04:12:28;98449.33;;;4.29;90.66
58919;BME280;44704;50.122;19.932;2022-09-24T04:14:56;98451.62;;;4.29;90.79
58919;BME280;44704;50.122;19.932;2022-09-24T04:17:23;98450.05;;;4.29;90.80
58919;BME280;44704;50.122;19.932;2022-09-24T04:19:57;98452.81;;;4.28;90.71
58919;BME280;44704;50.122;19.932;2022-09-24T04:22:24;98449.46;;;4.29;91.10
58919;BME280;44704;50.122;19.932;2022-09-24T04:24:51;98448.17;;;4.31;91.20
58919;BME280;44704;50.122;19.932;2022-09-24T04:27:19;98445.73;;;4.34;91.36
58919;BME280;44704;50.122;19.932;2022-09-24T04:29:47;98439.97;;;4.36;91.07
58919;BME280;44704;50.122;19.932;2022-09-24T04:32:15;98445.95;;;4.38;91.40
58919;BME280;44704;50.122;19.932;2022-09-24T04:34:42;98444.77;;;4.40;91.43
58919;BME280;44704;50.122;19.932;2022-09-24T04:37:09;98446.25;;;4.43;91.61
58919;BME280;44704;50.122;19.932;2022-09-24T04:39:35;98443.88;;;4.46;91.56
58919;BME280;44704;50.122;19.932;2022-09-24T04:42:02;98442.23;;;4.49;91.83
58919;BME280;44704;50.122;19.932;2022-09-24T04:44:29;98443.64;;;4.53;91.84
58919;BME280;44704;50.122;19.932;2022-09-24T04:46:56;98441.27;;;4.55;91.76
58919;BME280;44704;50.122;19.932;2022-09-24T04:49:28;98447.71;;;4.57;91.63
58919;BME280;44704;50.122;19.932;2022-09-24T04:51:55;98444.55;;;4.56;91.27
58919;BME280;44704;50.122;19.932;2022-09-24T04:54:24;98442.27;;;4.58;91.19
58919;BME280;44704;50.122;19.932;2022-09-24T04:56:51;98444.68;;;4.60;91.37
58919;BME280;44704;50.122;19.932;2022-09-24T04:59:18;98443.77;;;4.63;91.04
58919;BME280;44704;50.122;19.932;2022-09-24T05:01:45;98438.75;;;4.65;90.94
58919;BME280;44704;50.122;19.932;2022-09-24T05:04:12;98431.98;;;4.67;90.90
58919;BME280;44704;50.122;19.932;2022-09-24T05:06:50;98435.63;;;4.69;90.60
58919;BME280;44704;50.122;19.932;2022-09-24T05:09:28;98431.95;;;4.73;90.79
58919;BME280;44704;50.122;19.932;2022-09-24T05:12:33;98429.75;;;4.79;91.07
58919;BME280;44704;50.122;19.932;2022-09-24T05:15:05;98430.08;;;4.84;91.03
58919;BME280;44704;50.122;19.932;2022-09-24T05:17:32;98429.85;;;4.88;91.16
58919;BME280;44704;50.122;19.932;2022-09-24T05:20:04;98431.43;;;4.94;91.25
58919;BME280;44704;50.122;19.932;2022-09-24T05:22:31;98428.44;;;5.00;91.07
58919;BME280;44704;50.122;19.932;2022-09-24T05:24:58;98425.05;;;5.06;91.05
58919;BME280;44704;50.122;19.932;2022-09-24T05:27:25;98424.89;;;5.11;90.95
58919;BME280;44704;50.122;19.932;2022-09-24T05:29:52;98419.35;;;5.17;90.73
58919;BME280;44704;50.122;19.932;2022-09-24T05:32:19;98421.46;;;5.21;90.66
58919;BME280;44704;50.122;19.932;2022-09-24T05:34:46;98422.77;;;5.27;90.84
58919;BME280;44704;50.122;19.932;2022-09-24T05:37:13;98424.46;;;5.34;91.01
58919;BME280;44704;50.122;19.932;2022-09-24T05:39:41;98427.77;;;5.40;90.78
58919;BME280;44704;50.122;19.932;2022-09-24T05:42:09;98429.13;;;5.45;90.41
58919;BME280;44704;50.122;19.932;2022-09-24T05:44:40;98429.20;;;5.46;89.83
58919;BME280;44704;50.122;19.932;2022-09-24T06:11:31;98432.77;;;6.06;89.81
58919;BME280;44704;50.122;19.932;2022-09-24T07:06:36;98447.13;;;8.63;83.74
58919;BME280;44704;50.122;19.932;2022-09-24T11:39:41;98341.40;;;16.81;55.38
58919;BME280;44704;50.122;19.932;2022-09-24T11:42:31;98339.79;;;16.75;54.81
58919;BME280;44704;50.122;19.932;2022-09-24T11:45:32;98339.52;;;16.75;55.31
58919;BME280;44704;50.122;19.932;2022-09-24T11:50:59;98337.18;;;16.79;55.47
58919;BME280;44704;50.122;19.932;2022-09-24T11:53:49;98338.58;;;16.84;55.60
58919;BME280;44704;50.122;19.932;2022-09-24T11:56:25;98335.02;;;16.84;54.82
58919;BME280;44704;50.122;19.932;2022-09-24T12:01:37;98331.80;;;16.86;55.03
58919;BME280;44704;50.122;19.932;2022-09-24T12:04:16;98332.52;;;16.87;55.29
58919;BME280;44704;50.122;19.932;2022-09-24T12:06:54;98328.72;;;16.93;55.15
58919;BME280;44704;50.122;19.932;2022-09-24T12:12:20;98323.97;;;17.04;53.16
58919;BME280;44704;50.122;19.932;2022-09-24T12:17:34;98329.05;;;17.25;52.91
58919;BME280;44704;50.122;19.932;2022-09-24T12:20:10;98328.31;;;17.32;53.21
58919;BME280;44704;50.122;19.932;2022-09-24T12:22:41;98328.90;;;17.38;53.12
58919;BME280;44704;50.122;19.932;2022-09-24T12:25:12;98327.77;;;17.37;52.04
58919;BME280;44704;50.122;19.932;2022-09-24T12:27:40;98326.16;;;17.37;51.78
58919;BME280;44704;50.122;19.932;2022-09-24T12:30:23;98326.59;;;17.38;52.00
58919;BME280;44704;50.122;19.932;2022-09-24T12:38:46;98319.58;;;17.44;52.43
58919;BME280;44704;50.122;19.932;2022-09-24T12:41:32;98320.33;;;17.51;53.01
58919;BME280;44704;50.122;19.932;2022-09-24T12:44:15;98317.51;;;17.66;53.22
58919;BME280;44704;50.122;19.932;2022-09-24T12:46:50;98310.33;;;17.79;51.84
58919;BME280;44704;50.122;19.932;2022-09-24T12:51:57;98311.33;;;18.06;51.24
58919;BME280;44704;50.122;19.932;2022-09-24T12:57:12;98308.85;;;18.13;50.33
58919;BME280;44704;50.122;19.932;2022-09-24T12:59:50;98303.79;;;18.12;50.04
58919;BME280;44704;50.122;19.932;2022-09-24T13:02:23;98301.53;;;18.26;49.23
58919;BME280;44704;50.122;19.932;2022-09-24T13:07:39;98295.69;;;18.37;48.63
58919;BME280;44704;50.122;19.932;2022-09-24T13:12:43;98289.41;;;18.43;48.02
58919;BME280;44704;50.122;19.932;2022-09-24T13:15:36;98290.77;;;18.35;48.45
58919;BME280;44704;50.122;19.932;2022-09-24T13:20:32;98295.56;;;18.05;49.22
58919;BME280;44704;50.122;19.932;2022-09-24T13:25:57;98287.03;;;17.79;49.79
58919;BME280;44704;50.122;19.932;2022-09-24T13:28:26;98281.27;;;17.70;50.11
58919;BME280;44704;50.122;19.932;2022-09-24T13:31:01;98281.33;;;17.65;49.93
58919;BME280;44704;50.122;19.932;2022-09-24T13:33:30;98286.05;;;17.54;50.70
58919;BME280;44704;50.122;19.932;2022-09-24T13:36:12;98280.22;;;17.40;51.13
58919;BME280;44704;50.122;19.932;2022-09-24T13:39:06;98272.91;;;17.33;50.86
58919;BME280;44704;50.122;19.932;2022-09-24T13:44:16;98259.52;;;17.77;50.01
58919;BME280;44704;50.122;19.932;2022-09-24T13:46:50;98257.28;;;18.04;49.22
58919;BME280;44704;50.122;19.932;2022-09-24T13:49:20;98249.30;;;18.24;48.72
58919;BME280;44704;50.122;19.932;2022-09-24T13:52:07;98248.30;;;18.31;48.21
58919;BME280;44704;50.122;19.932;2022-09-24T13:54:47;98245.23;;;18.34;47.50
58919;BME280;44704;50.122;19.932;2022-09-24T13:57:22;98244.55;;;18.34;47.12
58919;BME280;44704;50.122;19.932;2022-09-24T14:00:16;98240.55;;;18.27;47.28
58919;BME280;44704;50.122;19.932;2022-09-24T14:02:52;98240.90;;;18.15;47.33
58919;BME280;44704;50.122;19.932;2022-09-24T14:05:20;98242.67;;;18.04;47.92
58919;BME280;44704;50.122;19.932;2022-09-24T14:07:56;98240.45;;;17.98;47.46
58919;BME280;44704;50.122;19.932;2022-09-24T14:10:25;98235.52;;;17.92;48.10
58919;BME280;44704;50.122;19.932;2022-09-24T14:13:00;98240.77;;;17.87;48.90
58919;BME280;44704;50.122;19.932;2022-09-24T14:15:28;98244.10;;;17.85;49.74
58919;BME280;44704;50.122;19.932;2022-09-24T14:17:58;98241.02;;;17.79;50.18
58919;BME280;44704;50.122;19.932;2022-09-24T14:20:28;98236.55;;;17.73;49.61
58919;BME280;44704;50.122;19.932;2022-09-24T14:22:56;98237.41;;;17.66;49.84
58919;BME280;44704;50.122;19.932;2022-09-24T14:25:34;98236.20;;;17.58;49.90
58919;BME280;44704;50.122;19.932;2022-09-24T14:28:03;98232.66;;;17.52;50.47
58919;BME280;44704;50.122;19.932;2022-09-24T14:30:32;98231.70;;;17.46;49.91
58919;BME280;44704;50.122;19.932;2022-09-24T14:33:06;98225.42;;;17.37;49.72
58919;BME280;44704;50.122;19.932;2022-09-24T14:35:39;98227.08;;;17.28;49.75
58919;BME280;44704;50.122;19.932;2022-09-24T14:38:23;98227.80;;;17.27;50.48
58919;BME280;44704;50.122;19.932;2022-09-24T14:40:55;98229.66;;;17.19;50.32
58919;BME280;44704;50.122;19.932;2022-09-24T14:43:26;98230.56;;;17.13;50.59
58919;BME280;44704;50.122;19.932;2022-09-24T14:46:02;98234.68;;;17.13;50.92
58919;BME280;44704;50.122;19.932;2022-09-24T14:48:33;98232.54;;;17.22;51.22
58919;BME280;44704;50.122;19.932;2022-09-24T14:51:00;98231.57;;;17.28;50.76
58919;BME280;44704;50.122;19.932;2022-09-24T14:53:34;98234.02;;;17.22;50.05
58919;BME280;44704;50.122;19.932;2022-09-24T14:56:18;98231.77;;;17.13;50.00
58919;BME280;44704;50.122;19.932;2022-09-24T14:58:46;98231.83;;;17.03;50.32
58919;BME280;44704;50.122;19.932;2022-09-24T15:01:18;98231.56;;;16.93;51.34
58919;BME280;44704;50.122;19.932;2022-09-24T15:04:04;98232.70;;;16.81;51.96
58919;BME280;44704;50.122;19.932;2022-09-24T15:06:44;98232.48;;;16.65;52.41
58919;BME280;44704;50.122;19.932;2022-09-24T15:09:27;98231.39;;;16.53;52.43
58919;BME280;44704;50.122;19.932;2022-09-24T15:12:06;98228.77;;;16.40;52.76
58919;BME280;44704;50.122;19.932;2022-09-24T15:14:34;98229.74;;;16.35;53.42
58919;BME280;44704;50.122;19.932;2022-09-24T15:17:19;98230.32;;;16.38;54.33
58919;BME280;44704;50.122;19.932;2022-09-24T15:19:46;98234.36;;;16.35;54.21
58919;BME280;44704;50.122;19.932;2022-09-24T15:22:13;98234.63;;;16.36;55.12
58919;BME280;44704;50.122;19.932;2022-09-24T15:24:41;98228.17;;;16.44;55.37
58919;BME280;44704;50.122;19.932;2022-09-24T15:27:22;98231.59;;;16.56;55.28
58919;BME280;44704;50.122;19.932;2022-09-24T15:29:49;98230.83;;;16.64;55.35
58919;BME280;44704;50.122;19.932;2022-09-24T15:32:18;98223.39;;;16.72;55.67
58919;BME280;44704;50.122;19.932;2022-09-24T15:34:46;98223.28;;;16.78;55.59
58919;BME280;44704;50.122;19.932;2022-09-24T15:37:21;98225.76;;;16.79;55.19
58919;BME280;44704;50.122;19.932;2022-09-24T15:39:51;98221.11;;;16.74;54.69
58919;BME280;44704;50.122;19.932;2022-09-24T15:42:21;98219.39;;;16.66;54.24
58919;BME280;44704;50.122;19.932;2022-09-24T15:44:48;98221.14;;;16.55;54.04
58919;BME280;44704;50.122;19.932;2022-09-24T15:47:20;98211.77;;;16.40;54.62
58919;BME280;44704;50.122;19.932;2022-09-24T15:49:47;98218.64;;;16.23;54.50
58919;BME280;44704;50.122;19.932;2022-09-24T15:52:24;98215.33;;;16.04;55.41
58919;BME280;44704;50.122;19.932;2022-09-24T15:54:57;98219.50;;;15.84;56.09
58919;BME280;44704;50.122;19.932;2022-09-24T15:57:26;98216.41;;;15.64;56.78
58919;BME280;44704;50.122;19.932;2022-09-24T15:59:53;98215.70;;;15.44;57.35
58919;BME280;44704;50.122;19.932;2022-09-24T16:02:24;98212.34;;;15.24;57.47
58919;BME280;44704;50.122;19.932;2022-09-24T16:04:53;98211.70;;;15.07;58.32
58919;BME280;44704;50.122;19.932;2022-09-24T16:07:20;98207.66;;;14.88;58.96
58919;BME280;44704;50.122;19.932;2022-09-24T16:09:47;98213.52;;;14.71;59.16
58919;BME280;44704;50.122;19.932;2022-09-24T16:12:15;98218.73;;;14.55;59.88
58919;BME280;44704;50.122;19.932;2022-09-24T16:14:43;98216.29;;;14.38;60.57
58919;BME280;44704;50.122;19.932;2022-09-24T16:17:10;98217.34;;;14.20;61.22
58919;BME280;44704;50.122;19.932;2022-09-24T16:19:38;98220.52;;;14.06;61.87
58919;BME280;44704;50.122;19.932;2022-09-24T16:22:05;98220.30;;;13.91;62.31
58919;BME280;44704;50.122;19.932;2022-09-24T16:24:32;98225.48;;;13.76;62.83
58919;BME280;44704;50.122;19.932;2022-09-24T16:27:00;98226.65;;;13.60;63.47
58919;BME280;44704;50.122;19.932;2022-09-24T16:29:28;98231.10;;;13.45;63.86
58919;BME280;44704;50.122;19.932;2022-09-24T16:31:54;98237.16;;;13.30;64.50
58919;BME280;44704;50.122;19.932;2022-09-24T16:34:21;98234.20;;;13.16;64.94
58919;BME280;44704;50.122;19.932;2022-09-24T16:36:48;98239.30;;;13.07;64.74
58919;BME280;44704;50.122;19.932;2022-09-24T16:39:15;98240.15;;;13.01;64.83
58919;BME280;44704;50.122;19.932;2022-09-24T16:41:42;98242.70;;;12.95;65.07
58919;BME280;44704;50.122;19.932;2022-09-24T16:44:10;98241.52;;;12.89;65.63
58919;BME280;44704;50.122;19.932;2022-09-24T16:46:41;98244.12;;;12.84;66.04
58919;BME280;44704;50.122;19.932;2022-09-24T16:49:09;98242.19;;;12.79;66.00
58919;BME280;44704;50.122;19.932;2022-09-24T16:51:37;98240.89;;;12.72;66.85
58919;BME280;44704;50.122;19.932;2022-09-24T16:54:04;98241.22;;;12.65;67.85
58919;BME280;44704;50.122;19.932;2022-09-24T16:56:31;98241.45;;;12.57;68.34
58919;BME280;44704;50.122;19.932;2022-09-24T16:58:58;98243.65;;;12.50;68.71
58919;BME280;44704;50.122;19.932;2022-09-24T17:01:25;98242.82;;;12.43;69.00
58919;BME280;44704;50.122;19.932;2022-09-24T17:03:57;98242.98;;;12.36;69.15
58919;BME280;44704;50.122;19.932;2022-09-24T17:06:27;98244.02;;;12.28;69.42
58919;BME280;44704;50.122;19.932;2022-09-24T17:08:54;98243.14;;;12.22;69.76
58919;BME280;44704;50.122;19.932;2022-09-24T17:11:41;98239.76;;;12.13;70.05
58919;BME280;44704;50.122;19.932;2022-09-24T17:14:09;98237.34;;;12.05;70.13
58919;BME280;44704;50.122;19.932;2022-09-24T17:16:40;98238.15;;;11.97;69.98
58919;BME280;44704;50.122;19.932;2022-09-24T17:19:09;98239.64;;;11.88;70.44
58919;BME280;44704;50.122;19.932;2022-09-24T17:21:38;98236.45;;;11.81;70.54
58919;BME280;44704;50.122;19.932;2022-09-24T17:24:06;98237.30;;;11.73;70.77
58919;BME280;44704;50.122;19.932;2022-09-24T17:26:34;98240.55;;;11.65;70.81
58919;BME280;44704;50.122;19.932;2022-09-24T17:29:01;98243.55;;;11.58;71.00
58919;BME280;44704;50.122;19.932;2022-09-24T17:31:28;98244.98;;;11.52;71.49
58919;BME280;44704;50.122;19.932;2022-09-24T17:33:57;98250.09;;;11.44;71.59
58919;BME280;44704;50.122;19.932;2022-09-24T17:36:26;98250.63;;;11.37;71.94
58919;BME280;44704;50.122;19.932;2022-09-24T17:38:54;98252.90;;;11.33;72.14
58919;BME280;44704;50.122;19.932;2022-09-24T17:41:22;98247.79;;;11.29;72.36
58919;BME280;44704;50.122;19.932;2022-09-24T17:43:49;98247.41;;;11.24;71.99
58919;BME280;44704;50.122;19.932;2022-09-24T17:46:19;98250.52;;;11.20;72.41
58919;BME280;44704;50.122;19.932;2022-09-24T17:48:52;98251.74;;;11.17;72.40
58919;BME280;44704;50.122;19.932;2022-09-24T17:51:24;98253.91;;;11.15;72.58
58919;BME280;44704;50.122;19.932;2022-09-24T17:53:54;98252.04;;;11.15;73.06
58919;BME280;44704;50.122;19.932;2022-09-24T17:56:23;98250.72;;;11.14;73.00
58919;BME280;44704;50.122;19.932;2022-09-24T17:58:50;98248.42;;;11.13;72.89
58919;BME280;44704;50.122;19.932;2022-09-24T18:01:28;98245.31;;;11.13;73.22
58919;BME280;44704;50.122;19.932;2022-09-24T18:03:56;98245.29;;;11.12;73.41
58919;BME280;44704;50.122;19.932;2022-09-24T18:06:26;98244.91;;;11.11;72.98
58919;BME280;44704;50.122;19.932;2022-09-24T18:08:53;98241.84;;;11.09;73.41
58919;BME280;44704;50.122;19.932;2022-09-24T18:11:25;98245.31;;;11.08;73.51
58919;BME280;44704;50.122;19.932;2022-09-24T18:13:55;98245.13;;;11.07;73.53
58919;BME280;44704;50.122;19.932;2022-09-24T18:16:24;98244.96;;;11.07;73.89
58919;BME280;44704;50.122;19.932;2022-09-24T18:18:52;98250.52;;;11.06;73.63
58919;BME280;44704;50.122;19.932;2022-09-24T18:21:21;98249.84;;;11.05;73.75
58919;BME280;44704;50.122;19.932;2022-09-24T18:23:53;98244.16;;;11.03;73.85
58919;BME280;44704;50.122;19.932;2022-09-24T18:26:23;98250.06;;;11.01;74.04
58919;BME280;44704;50.122;19.932;2022-09-24T18:28:55;98244.31;;;10.99;73.80
58919;BME280;44704;50.122;19.932;2022-09-24T18:31:26;98244.39;;;10.96;73.88
58919;BME280;44704;50.122;19.932;2022-09-24T18:33:56;98247.20;;;10.93;74.01
58919;BME280;44704;50.122;19.932;2022-09-24T18:36:26;98246.96;;;10.89;74.04
58919;BME280;44704;50.122;19.932;2022-09-24T18:38:53;98240.33;;;10.86;74.21
58919;BME280;44704;50.122;19.932;2022-09-24T18:41:24;98240.91;;;10.79;73.89
58919;BME280;44704;50.122;19.932;2022-09-24T18:43:53;98245.18;;;10.73;74.08
58919;BME280;44704;50.122;19.932;2022-09-24T18:46:21;98241.40;;;10.69;74.51
58919;BME280;44704;50.122;19.932;2022-09-24T18:48:51;98244.87;;;10.63;74.60
58919;BME280;44704;50.122;19.932;2022-09-24T18:51:22;98248.50;;;10.58;74.71
58919;BME280;44704;50.122;19.932;2022-09-24T18:53:59;98252.14;;;10.53;74.60
58919;BME280;44704;50.122;19.932;2022-09-24T18:56:26;98250.58;;;10.47;74.89
58919;BME280;44704;50.122;19.932;2022-09-24T18:59:03;98254.83;;;10.41;75.26
58919;BME280;44704;50.122;19.932;2022-09-24T19:01:31;98255.69;;;10.33;75.43
58919;BME280;44704;50.122;19.932;2022-09-24T19:03:58;98260.40;;;10.26;75.79
58919;BME280;44704;50.122;19.932;2022-09-24T19:06:27;98260.98;;;10.21;76.05
58919;BME280;44704;50.122;19.932;2022-09-24T19:08:55;98264.14;;;10.18;75.93
58919;BME280;44704;50.122;19.932;2022-09-24T19:11:22;98265.48;;;10.14;76.18
58919;BME280;44704;50.122;19.932;2022-09-24T19:13:51;98267.40;;;10.11;76.17
58919;BME280;44704;50.122;19.932;2022-09-24T19:16:21;98275.48;;;10.07;76.34
58919;BME280;44704;50.122;19.932;2022-09-24T19:18:52;98274.92;;;10.02;76.32
58919;BME280;44704;50.122;19.932;2022-09-24T19:21:20;98279.05;;;9.99;76.32
58919;BME280;44704;50.122;19.932;2022-09-24T19:23:51;98281.35;;;9.96;76.39
58919;BME280;44704;50.122;19.932;2022-09-24T19:26:30;98280.48;;;9.93;76.60
58919;BME280;44704;50.122;19.932;2022-09-24T19:28:59;98280.52;;;9.90;76.89
58919;BME280;44704;50.122;19.932;2022-09-24T19:31:31;98276.63;;;9.87;76.93
58919;BME280;44704;50.122;19.932;2022-09-24T19:33:59;98275.06;;;9.84;77.22
58919;BME280;44704;50.122;19.932;2022-09-24T19:36:32;98270.92;;;9.82;77.18
58919;BME280;44704;50.122;19.932;2022-09-24T19:39:07;98270.71;;;9.79;77.24
58919;BME280;44704;50.122;19.932;2022-09-24T19:41:35;98272.23;;;9.76;77.52
58919;BME280;44704;50.122;19.932;2022-09-24T19:44:02;98268.52;;;9.72;77.52
58919;BME280;44704;50.122;19.932;2022-09-24T19:46:29;98271.67;;;9.69;77.74
58919;BME280;44704;50.122;19.932;2022-09-24T19:48:59;98272.19;;;9.67;77.97
58919;BME280;44704;50.122;19.932;2022-09-24T19:51:30;98271.24;;;9.64;78.00
58919;BME280;44704;50.122;19.932;2022-09-24T19:54:04;98274.05;;;9.62;78.16
58919;BME280;44704;50.122;19.932;2022-09-24T19:56:35;98273.96;;;9.61;78.20
58919;BME280;44704;50.122;19.932;2022-09-24T19:59:03;98274.06;;;9.58;78.26
58919;BME280;44704;50.122;19.932;2022-09-24T20:01:31;98278.86;;;9.55;78.46
58919;BME280;44704;50.122;19.932;2022-09-24T20:04:02;98277.22;;;9.52;78.55